Terminal Aerodrome Forecast
Issued by NWS

Home | Current Version | Previous Version | Text Only | Print | Product List | Glossary On
Versions: 1 2 3 4 5 6 7 8 9 10 11 12 13 14 15 16 17 18 19 20 21 22 23 24 25 26 27 28
000
FTUS41 KBTV 262327
TAFPBG
TAF
KPBG 262327Z 2700/2724 20003KT P6SM SCT045 BKN060
     FM270400 VRB04KT P6SM VCSH SCT040 OVC050
     FM270600 16006KT P6SM -SHRA SCT030 OVC060
     FM270900 18007KT P6SM -SHRA OVC030
     FM271500 19007KT P6SM VCSH BKN035
     FM271800 26005KT P6SM VCSH SCT060=

USA.gov is the U.S. government's official web portal to all federal, state and local government web resources and services.